Terminal Aerodrome Forecast
Issued by NWS Wilmington, OH

Current Version | Previous Version | Text Only | Print | Product List | Glossary Off
Versions: 1 2 3 4 5 6 7 8 9 10 11 12 13 14 15 16 17 18 19 20 21 22 23 24 25

000
FTUS41 KILN 310227 AAA
TAFCVG
TAF AMD
KCVG 310227Z 3102/0106 19003KT P6SM FEW040 BKN250
     FM310800 19003KT 4SM BR FEW120 BKN250
     FM311300 23006KT P6SM FEW020 SCT100
     FM311800 24006KT P6SM VCSH BKN040
     FM010100 19003KT P6SM SCT050 BKN250=

USA.gov is the U.S. government's official web portal to all federal, state and local government web resources and services.